Terminal Aerodrome Forecast
Issued by NWS

Home | Current Version | Previous Version | Text Only | Print | Product List | Glossary On
Versions: 1 2 3 4 5 6 7 8 9 10 11 12 13 14 15 16 17 18 19 20 21 22 23
000
FTAK31 PAJN 290000 AAA
TAFASI
TAF AMD
PASI 290027Z 2900/2924 20008KT P6SM -SHRA FEW015 BKN035 OVC050
      TEMPO 2900/2904 19008G18KT 2SM SHRA BR BKN025 OVC035
     FM290900 14005KT P6SM VCSH BKN040 OVC060
     FM292200 19010KT P6SM -SHRA BKN030 OVC050=

USA.gov is the U.S. government's official web portal to all federal, state and local government web resources and services.